Terminal Aerodrome Forecast
Issued by NWS Twin Cities, MN

Home | Current Version | Previous Version | Text Only | Print | Product List | Glossary Off
Versions: 1 2 3 4 5 6 7 8 9 10 11 12 13 14

819
FTUS43 KMPX 230520
TAFEAU
TAF
KEAU 230520Z 2306/2406 19010KT P6SM SKC WS020/23045KT
     FM231500 19013G21KT P6SM SKC
     FM240000 18011KT P6SM SCT150 BKN250=

USA.gov is the U.S. government's official web portal to all federal, state and local government web resources and services.